Taylorville, IL

11:19 PM CDT on May 28, 2017 (GMT -0500)
Taylorville Municipal

Weather History for KTAZ - December, 2012

Change the Weather History Date:

Saturday, December 15, 2012

  Actual Average (KSPI) Record (KSPI)
Temperature  
Mean Temperature 46 °F -  
Max Temperature 51 °F 39 °F 72 °F (1948)
Min Temperature 41 °F 23 °F -11 °F (1951)
Degree Days  
Heating Degree Days 19    
Moisture  
Dew Point 44 °F    
Average Humidity 90    
Maximum Humidity 100    
Minimum Humidity 66    
Precipitation  
Precipitation 0.46 in - - ()
Sea Level Pressure  
Sea Level Pressure 29.73 in    
Wind  
Wind Speed 13 mph (South)    
Max Wind Speed 24 mph    
Max Gust Speed 34 mph    
Visibility 9 miles    
Events Rain    
Averages and records for this station are not official NWS values.
T = Trace of Precipitation, MM = Missing Value Source: NWS Daily Summary

Daily Weather History Graph

Daily Weather History Graph

Search for Another Location

Airport or City:

Trip Planner

Search our weather history database for the weather conditions in past years. The results will help you decide how hot, cold, wet, or windy it might be!

Date:

Astronomy

Dec. 15, 2012 Rise Set
Actual Time 7:10 AM CST 4:34 PM CST
Civil Twilight 6:40 AM CST 5:04 PM CST
Nautical Twilight 6:06 AM CST 5:38 PM CST
Astronomical Twilight 5:34 AM CST 6:11 PM CST
Moon 9:04 AM CST (12/15) 7:38 PM CST (12/15)
Length of Visible Light 10h 24m
Length of Day
9h 23m
Waxing Crescent, 8% of the Moon is Illuminated
Dec 15
Waxing Crescent
Dec 19
First Quarter
Dec 28
Full
Jan 4
Last Quarter
Jan 11
New

Hourly Weather History & Observations

Time (CST) Temp. Windchill Dew Point Humidity Pressure Visibility Wind Dir Wind Speed Gust Speed Precip Events Conditions
12:15 AM 42.8 °F 36.6 °F 35.6 °F 76% 29.99 in 10.0 mi SSE 11.5 mph - N/A   Mostly Cloudy
12:35 AM 42.8 °F 37.5 °F 33.8 °F 70% 29.97 in 10.0 mi SSE 9.2 mph - N/A   Mostly Cloudy
12:55 AM 42.8 °F 37.5 °F 35.6 °F 76% 29.96 in 10.0 mi SE 9.2 mph - N/A   Scattered Clouds
1:15 AM 42.8 °F 37.0 °F 33.8 °F 70% 29.95 in 10.0 mi SSE 10.4 mph - N/A   Scattered Clouds
1:35 AM 42.8 °F 37.5 °F 33.8 °F 70% 29.95 in 10.0 mi SSE 9.2 mph - N/A   Scattered Clouds
1:55 AM 42.8 °F 36.6 °F 33.8 °F 70% 29.93 in 10.0 mi SSE 11.5 mph - N/A   Mostly Cloudy
2:15 AM 44.6 °F 38.1 °F 33.8 °F 66% 29.93 in 10.0 mi SSE 13.8 mph - N/A   Scattered Clouds
2:35 AM 44.6 °F 38.4 °F 35.6 °F 71% 29.93 in 10.0 mi SSE 12.7 mph - N/A Rain Light Rain
2:55 AM 42.8 °F 36.6 °F 35.6 °F 76% 29.94 in 10.0 mi SSE 11.5 mph - N/A Rain Light Rain
3:15 AM 42.8 °F 37.0 °F 37.4 °F 81% 29.93 in 10.0 mi SSE 10.4 mph - 0.03 in Rain Light Rain
3:35 AM 42.8 °F 37.0 °F 37.4 °F 81% 29.92 in 10.0 mi SSE 10.4 mph - 0.06 in Rain Light Rain
3:55 AM 41.0 °F 34.3 °F 37.4 °F 87% 29.89 in 10.0 mi SE 11.5 mph - 0.01 in Rain Rain
4:15 AM 42.8 °F 35.8 °F 37.4 °F 81% 29.88 in 10.0 mi SE 13.8 mph - 0.04 in Rain Light Rain
4:35 AM 42.8 °F 35.4 °F 39.2 °F 87% 29.85 in 10.0 mi SE 15.0 mph 19.6 mph 0.08 in Rain Rain
4:55 AM 42.8 °F 34.8 °F 39.2 °F 87% 29.83 in 7.0 mi SE 17.3 mph - 0.01 in Rain Light Rain
5:15 AM 42.8 °F 34.8 °F 41.0 °F 93% 29.83 in 7.0 mi SSE 17.3 mph - 0.05 in Rain Heavy Rain
5:35 AM 42.8 °F 35.1 °F 41.0 °F 93% 29.83 in 2.5 mi SSE 16.1 mph - 0.15 in Rain Light Rain
5:55 AM 42.8 °F 35.4 °F 42.8 °F 100% 29.83 in 5.0 mi SE 15.0 mph 19.6 mph 0.05 in Rain Rain
6:15 AM 42.8 °F 34.5 °F 42.8 °F 100% 29.82 in 7.0 mi SE 18.4 mph 21.9 mph 0.14 in Rain Rain
6:35 AM 42.8 °F 33.8 °F 42.8 °F 100% 29.79 in 7.0 mi SE 21.9 mph 26.5 mph 0.17 in Rain Light Rain
6:55 AM 42.8 °F 33.3 °F 42.8 °F 100% 29.74 in 10.0 mi SE 24.2 mph 29.9 mph N/A   Light Drizzle
7:15 AM 42.8 °F 33.5 °F 42.8 °F 100% 29.74 in 10.0 mi SE 23.0 mph 29.9 mph N/A   Mostly Cloudy
7:35 AM 44.6 °F 36.4 °F 42.8 °F 93% 29.74 in 10.0 mi SSE 20.7 mph 26.5 mph N/A   Overcast
7:55 AM 44.6 °F 36.6 °F 44.6 °F 100% 29.74 in 10.0 mi SSE 19.6 mph 28.8 mph N/A   Overcast
8:15 AM 44.6 °F 36.4 °F 44.6 °F 100% 29.75 in 10.0 mi SSE 20.7 mph 26.5 mph N/A   Overcast
8:35 AM 46.4 °F 39.2 °F 44.6 °F 93% 29.74 in 10.0 mi SSE 18.4 mph 23.0 mph N/A   Overcast
8:55 AM 46.4 °F 38.7 °F 44.6 °F 93% 29.73 in 7.0 mi SSE 20.7 mph 27.6 mph N/A   Overcast
9:15 AM 46.4 °F 39.0 °F 44.6 °F 93% 29.73 in 3.0 mi SSE 19.6 mph 27.6 mph N/A   Overcast
9:35 AM 46.4 °F 38.7 °F 44.6 °F 93% 29.72 in 7.0 mi South 20.7 mph 25.3 mph N/A   Overcast
9:55 AM 46.4 °F - 46.4 °F 100% 29.71 in 10.0 mi North - - N/A   Overcast
10:15 AM 46.4 °F 38.1 °F 46.4 °F 100% 29.70 in 10.0 mi South 24.2 mph 34.5 mph N/A   Overcast
10:35 AM 46.4 °F 38.5 °F 46.4 °F 100% 29.71 in 7.0 mi South 21.9 mph 26.5 mph N/A   Overcast
10:55 AM 46.4 °F 39.8 °F 46.4 °F 100% 29.70 in 7.0 mi South 16.1 mph 23.0 mph N/A   Overcast
11:15 AM 46.4 °F 39.8 °F 46.4 °F 100% 29.69 in 5.0 mi South 16.1 mph 21.9 mph N/A   Overcast
11:35 AM 48.2 °F - 48.2 °F 100% 29.67 in 7.0 mi South 15.0 mph - N/A   Overcast
11:55 AM 51.8 °F - 48.2 °F 88% 29.65 in 10.0 mi South 18.4 mph 23.0 mph N/A   Mostly Cloudy
12:15 PM 51.8 °F - 48.2 °F 88% 29.65 in 10.0 mi South 16.1 mph 27.6 mph N/A   Overcast
12:35 PM 51.8 °F - 48.2 °F 88% 29.64 in 10.0 mi South 18.4 mph 24.2 mph N/A   Overcast
12:55 PM 51.8 °F - 48.2 °F 88% 29.63 in 10.0 mi South 16.1 mph 23.0 mph N/A   Overcast
1:15 PM 51.8 °F - 48.2 °F 88% 29.62 in 10.0 mi South 17.3 mph 24.2 mph N/A   Overcast
1:35 PM 51.8 °F - 48.2 °F 88% 29.60 in 10.0 mi South 19.6 mph 25.3 mph N/A   Overcast
1:55 PM 51.8 °F - 48.2 °F 88% 29.60 in 10.0 mi South 17.3 mph 24.2 mph N/A   Overcast
2:15 PM 51.8 °F - 48.2 °F 88% 29.59 in 10.0 mi South 16.1 mph 31.1 mph N/A   Overcast
2:35 PM 51.8 °F - 48.2 °F 88% 29.59 in 10.0 mi South 16.1 mph 21.9 mph N/A   Overcast
2:55 PM 51.8 °F - 48.2 °F 88% 29.59 in 10.0 mi South 16.1 mph 21.9 mph N/A   Overcast
3:15 PM 51.8 °F - 48.2 °F 88% 29.60 in 10.0 mi South 15.0 mph 21.9 mph N/A   Overcast
3:35 PM 51.8 °F - 48.2 °F 88% 29.60 in 10.0 mi South 15.0 mph 19.6 mph N/A   Overcast
3:55 PM 51.8 °F - 48.2 °F 88% 29.61 in 10.0 mi South 11.5 mph - N/A   Overcast
4:15 PM 51.8 °F - 48.2 °F 88% 29.61 in 10.0 mi South 12.7 mph - N/A   Overcast
4:35 PM 51.8 °F - 48.2 °F 88% 29.62 in 10.0 mi South 12.7 mph - N/A   Overcast
4:55 PM 51.8 °F - 48.2 °F 88% 29.62 in 10.0 mi South 11.5 mph - N/A   Overcast
5:15 PM 51.8 °F - 48.2 °F 88% 29.63 in 10.0 mi South 10.4 mph - N/A   Overcast
5:35 PM 51.8 °F - 48.2 °F 88% 29.63 in 1.0 mi South 9.2 mph 16.1 mph N/A   Overcast
5:55 PM 51.8 °F - 48.2 °F 88% 29.64 in - South 10.4 mph - N/A   Overcast
6:15 PM 51.8 °F - 48.2 °F 88% 29.64 in 10.0 mi South 11.5 mph - N/A   Overcast
6:35 PM 51.8 °F - 48.2 °F 88% 29.64 in 10.0 mi SSW 8.1 mph - N/A   Overcast
6:55 PM 51.8 °F - 48.2 °F 88% 29.65 in 10.0 mi SSW 9.2 mph - N/A   Overcast
7:15 PM 50.0 °F - 48.2 °F 94% 29.66 in 10.0 mi SSW 8.1 mph - N/A   Unknown
7:35 PM 48.2 °F - 46.4 °F 93% 29.67 in 10.0 mi SSW 9.2 mph - N/A   Clear
7:55 PM 48.2 °F - 46.4 °F 93% 29.67 in 10.0 mi North - - N/A   Clear
8:15 PM 48.2 °F - 46.4 °F 93% 29.68 in 10.0 mi SW 6.9 mph - N/A   Clear
8:35 PM 46.4 °F 42.4 °F 46.4 °F 100% 29.68 in 10.0 mi SSW 8.1 mph - N/A   Clear
8:55 PM 46.4 °F 42.9 °F 46.4 °F 100% 29.68 in 10.0 mi SSW 6.9 mph - N/A   Clear
9:15 PM 46.4 °F 42.4 °F 46.4 °F 100% 29.68 in 10.0 mi SSW 8.1 mph - N/A   Scattered Clouds
9:35 PM 46.4 °F 42.4 °F 46.4 °F 100% 29.68 in 10.0 mi SSW 8.1 mph - N/A   Scattered Clouds
9:55 PM 46.4 °F 41.9 °F 46.4 °F 100% 29.68 in 10.0 mi SW 9.2 mph - N/A   Clear
10:15 PM 46.4 °F 42.9 °F 46.4 °F 100% 29.68 in 7.0 mi SW 6.9 mph - N/A   Clear
10:35 PM 46.4 °F 42.4 °F 46.4 °F 100% 29.68 in 7.0 mi SW 8.1 mph - N/A   Clear
10:55 PM 46.4 °F 41.9 °F 46.4 °F 100% 29.69 in 7.0 mi SW 9.2 mph - N/A   Mostly Cloudy
11:15 PM 46.4 °F 42.9 °F 46.4 °F 100% 29.68 in 7.0 mi SW 6.9 mph - N/A   Overcast
11:35 PM 46.4 °F 43.5 °F 46.4 °F 100% 29.68 in 5.0 mi SSW 5.8 mph - N/A   Overcast
11:55 PM 46.4 °F 42.4 °F 46.4 °F 100% 29.68 in 7.0 mi SSW 8.1 mph - N/A   Overcast